sensor_id;sensor_type;location;lat;lon;timestamp;pressure;altitude;pressure_sealevel;temperature;humidity
7760;BME280;3924;48.830;9.262;2023-03-19T00:00:31;98299.09;;;11.05;66.85
7760;BME280;3924;48.830;9.262;2023-03-19T00:02:57;98293.97;;;11.04;67.01
7760;BME280;3924;48.830;9.262;2023-03-19T00:05:24;98294.25;;;11.02;67.13
7760;BME280;3924;48.830;9.262;2023-03-19T00:07:51;98298.09;;;11.01;67.20
7760;BME280;3924;48.830;9.262;2023-03-19T00:10:17;98296.47;;;11.00;67.40
7760;BME280;3924;48.830;9.262;2023-03-19T00:12:44;98288.66;;;10.99;67.41
7760;BME280;3924;48.830;9.262;2023-03-19T00:15:10;98293.28;;;10.98;67.25
7760;BME280;3924;48.830;9.262;2023-03-19T00:17:40;98293.28;;;10.98;67.53
7760;BME280;3924;48.830;9.262;2023-03-19T00:20:10;98289.16;;;11.01;67.47
7760;BME280;3924;48.830;9.262;2023-03-19T00:22:37;98290.75;;;11.02;67.53
7760;BME280;3924;48.830;9.262;2023-03-19T00:25:04;98295.06;;;11.03;67.38
7760;BME280;3924;48.830;9.262;2023-03-19T00:27:30;98299.78;;;10.97;67.71
7760;BME280;3924;48.830;9.262;2023-03-19T00:29:57;98298.28;;;10.91;67.65
7760;BME280;3924;48.830;9.262;2023-03-19T00:32:23;98297.28;;;10.87;67.85
7760;BME280;3924;48.830;9.262;2023-03-19T00:34:50;98304.13;;;10.84;67.90
7760;BME280;3924;48.830;9.262;2023-03-19T00:37:17;98303.28;;;10.84;67.78
7760;BME280;3924;48.830;9.262;2023-03-19T00:39:44;98303.28;;;10.84;67.93
7760;BME280;3924;48.830;9.262;2023-03-19T00:42:10;98304.69;;;10.81;68.14
7760;BME280;3924;48.830;9.262;2023-03-19T00:44:37;98309.63;;;10.79;68.24
7760;BME280;3924;48.830;9.262;2023-03-19T00:47:03;98302.28;;;10.80;67.90
7760;BME280;3924;48.830;9.262;2023-03-19T00:49:31;98300.69;;;10.79;68.12
7760;BME280;3924;48.830;9.262;2023-03-19T00:51:58;98298.47;;;10.81;68.29
7760;BME280;3924;48.830;9.262;2023-03-19T00:54:24;98305.00;;;10.80;68.14
7760;BME280;3924;48.830;9.262;2023-03-19T00:56:51;98305.81;;;10.80;68.04
7760;BME280;3924;48.830;9.262;2023-03-19T00:59:17;98303.41;;;10.79;68.16
7760;BME280;3924;48.830;9.262;2023-03-19T01:01:43;98304.69;;;10.81;68.24
7760;BME280;3924;48.830;9.262;2023-03-19T01:04:10;98300.88;;;10.82;68.16
7760;BME280;3924;48.830;9.262;2023-03-19T01:06:36;98305.19;;;10.83;68.08
7760;BME280;3924;48.830;9.262;2023-03-19T01:09:03;98303.28;;;10.84;68.31
7760;BME280;3924;48.830;9.262;2023-03-19T01:11:29;98303.28;;;10.84;68.32
7760;BME280;3924;48.830;9.262;2023-03-19T01:13:56;98304.69;;;10.81;68.17
7760;BME280;3924;48.830;9.262;2023-03-19T01:16:22;98305.00;;;10.80;68.51
7760;BME280;3924;48.830;9.262;2023-03-19T01:18:49;98302.88;;;10.77;68.29
7760;BME280;3924;48.830;9.262;2023-03-19T01:21:16;98306.69;;;10.76;68.49
7760;BME280;3924;48.830;9.262;2023-03-19T01:23:42;98309.72;;;10.74;68.70
7760;BME280;3924;48.830;9.262;2023-03-19T01:26:09;98317.53;;;10.76;68.46
7760;BME280;3924;48.830;9.262;2023-03-19T01:28:35;98327.28;;;10.77;68.62
7760;BME280;3924;48.830;9.262;2023-03-19T01:31:06;98320.78;;;10.78;68.47
7760;BME280;3924;48.830;9.262;2023-03-19T01:33:33;98327.81;;;10.79;68.52
7760;BME280;3924;48.830;9.262;2023-03-19T01:36:00;98325.38;;;10.77;68.78
7760;BME280;3924;48.830;9.262;2023-03-19T01:38:31;98320.78;;;10.78;68.57
7760;BME280;3924;48.830;9.262;2023-03-19T01:40:58;98337.06;;;10.78;68.87
7760;BME280;3924;48.830;9.262;2023-03-19T01:43:26;98339.25;;;10.76;68.80
7760;BME280;3924;48.830;9.262;2023-03-19T01:45:56;98329.72;;;10.78;68.87
7760;BME280;3924;48.830;9.262;2023-03-19T01:48:26;98338.66;;;10.79;68.81
7760;BME280;3924;48.830;9.262;2023-03-19T01:50:53;98334.34;;;10.78;68.84
7760;BME280;3924;48.830;9.262;2023-03-19T01:53:27;98336.53;;;10.76;68.99
7760;BME280;3924;48.830;9.262;2023-03-19T01:56:00;98345.47;;;10.76;68.85
7760;BME280;3924;48.830;9.262;2023-03-19T01:58:28;98344.66;;;10.76;68.68
7760;BME280;3924;48.830;9.262;2023-03-19T02:00:55;98360.94;;;10.76;69.02
7760;BME280;3924;48.830;9.262;2023-03-19T02:03:23;98361.22;;;10.74;68.82
7760;BME280;3924;48.830;9.262;2023-03-19T02:05:51;98371.78;;;10.76;68.98
7760;BME280;3924;48.830;9.262;2023-03-19T02:08:19;98366.34;;;10.76;69.05
7760;BME280;3924;48.830;9.262;2023-03-19T02:10:49;98378.31;;;10.75;69.02
7760;BME280;3924;48.830;9.262;2023-03-19T02:13:16;98367.47;;;10.75;69.28
7760;BME280;3924;48.830;9.262;2023-03-19T02:15:43;98365.25;;;10.77;69.11
7760;BME280;3924;48.830;9.262;2023-03-19T02:18:10;98357.63;;;10.79;68.97
7760;BME280;3924;48.830;9.262;2023-03-19T02:20:46;98365.16;;;10.82;68.78
7760;BME280;3924;48.830;9.262;2023-03-19T02:23:25;98371.59;;;10.86;68.62
7760;BME280;3924;48.830;9.262;2023-03-19T02:28:27;98370.41;;;10.92;68.73
7760;BME280;3924;48.830;9.262;2023-03-19T02:30:53;98369.31;;;10.93;68.63
7760;BME280;3924;48.830;9.262;2023-03-19T02:33:20;98366.91;;;10.91;68.57
7760;BME280;3924;48.830;9.262;2023-03-19T02:35:49;98378.56;;;10.92;68.66
7760;BME280;3924;48.830;9.262;2023-03-19T02:38:17;98376.34;;;10.94;68.63
7760;BME280;3924;48.830;9.262;2023-03-19T02:40:51;98375.22;;;10.95;68.66
7760;BME280;3924;48.830;9.262;2023-03-19T02:43:20;98367.59;;;10.97;68.44
7760;BME280;3924;48.830;9.262;2023-03-19T02:45:47;98366.50;;;10.98;68.54
7760;BME280;3924;48.830;9.262;2023-03-19T02:48:13;98384.81;;;11.06;68.49
7760;BME280;3924;48.830;9.262;2023-03-19T02:50:40;98383.88;;;11.11;68.24
7760;BME280;3924;48.830;9.262;2023-03-19T02:53:06;98368.72;;;11.10;68.32
7760;BME280;3924;48.830;9.262;2023-03-19T02:55:33;98368.00;;;11.04;68.67
7760;BME280;3924;48.830;9.262;2023-03-19T02:57:59;98367.00;;;11.00;69.03
7760;BME280;3924;48.830;9.262;2023-03-19T03:00:26;98364.38;;;10.95;69.07
7760;BME280;3924;48.830;9.262;2023-03-19T03:02:55;98362.56;;;10.90;69.38
7760;BME280;3924;48.830;9.262;2023-03-19T03:05:22;98364.59;;;10.85;69.44
7760;BME280;3924;48.830;9.262;2023-03-19T03:07:49;98371.09;;;10.84;69.81
7760;BME280;3924;48.830;9.262;2023-03-19T03:10:15;98374.41;;;10.81;69.88
7760;BME280;3924;48.830;9.262;2023-03-19T03:12:42;98390.97;;;10.79;70.18
7760;BME280;3924;48.830;9.262;2023-03-19T03:15:09;98392.09;;;10.78;70.08
7760;BME280;3924;48.830;9.262;2023-03-19T03:17:36;98377.19;;;10.76;70.31
7760;BME280;3924;48.830;9.262;2023-03-19T03:20:04;98376.19;;;10.72;70.68
7760;BME280;3924;48.830;9.262;2023-03-19T03:22:31;98373.56;;;10.66;70.78
7760;BME280;3924;48.830;9.262;2023-03-19T03:24:58;98363.59;;;10.62;71.00
7760;BME280;3924;48.830;9.262;2023-03-19T03:27:24;98362.88;;;10.56;71.31
7760;BME280;3924;48.830;9.262;2023-03-19T03:29:52;98380.94;;;10.47;71.50
7760;BME280;3924;48.830;9.262;2023-03-19T03:32:18;98389.13;;;10.42;71.80
7760;BME280;3924;48.830;9.262;2023-03-19T03:34:45;98371.50;;;10.45;71.90
7760;BME280;3924;48.830;9.262;2023-03-19T03:37:11;98379.81;;;10.48;72.12
7760;BME280;3924;48.830;9.262;2023-03-19T03:39:38;98385.78;;;10.50;72.14
7760;BME280;3924;48.830;9.262;2023-03-19T03:42:04;98381.75;;;10.48;72.31
7760;BME280;3924;48.830;9.262;2023-03-19T03:44:31;98385.78;;;10.50;72.62
7760;BME280;3924;48.830;9.262;2023-03-19T03:46:58;98389.28;;;10.51;72.25
7760;BME280;3924;48.830;9.262;2023-03-19T03:49:24;98391.19;;;10.50;72.94
7760;BME280;3924;48.830;9.262;2023-03-19T03:51:51;98387.66;;;10.50;72.79
7760;BME280;3924;48.830;9.262;2023-03-19T03:54:17;98390.38;;;10.50;72.97
7760;BME280;3924;48.830;9.262;2023-03-19T03:56:44;98387.97;;;10.48;73.27
7760;BME280;3924;48.830;9.262;2023-03-19T03:59:11;98380.94;;;10.47;73.29
7760;BME280;3924;48.830;9.262;2023-03-19T04:01:37;98385.34;;;10.43;73.50
7760;BME280;3924;48.830;9.262;2023-03-19T04:04:04;98394.56;;;10.42;73.69
7760;BME280;3924;48.830;9.262;2023-03-19T04:06:30;98404.91;;;10.40;73.75
7760;BME280;3924;48.830;9.262;2023-03-19T04:08:57;98403.28;;;10.39;73.68
7760;BME280;3924;48.830;9.262;2023-03-19T04:11:23;98396.28;;;10.38;73.69
7760;BME280;3924;48.830;9.262;2023-03-19T04:13:50;98402.78;;;10.37;73.96
7760;BME280;3924;48.830;9.262;2023-03-19T04:16:16;98404.97;;;10.35;73.78
7760;BME280;3924;48.830;9.262;2023-03-19T04:18:43;98409.88;;;10.33;74.20
7760;BME280;3924;48.830;9.262;2023-03-19T04:21:09;98410.69;;;10.33;74.23
7760;BME280;3924;48.830;9.262;2023-03-19T04:23:35;98410.50;;;10.30;74.15
7760;BME280;3924;48.830;9.262;2023-03-19T04:26:03;98411.28;;;10.30;74.69
7760;BME280;3924;48.830;9.262;2023-03-19T04:28:32;98413.19;;;10.30;74.29
7760;BME280;3924;48.830;9.262;2023-03-19T04:31:00;98419.41;;;10.30;74.34
7760;BME280;3924;48.830;9.262;2023-03-19T04:33:27;98424.03;;;10.30;74.40
7760;BME280;3924;48.830;9.262;2023-03-19T04:35:55;98425.09;;;10.29;74.66
7760;BME280;3924;48.830;9.262;2023-03-19T04:38:23;98421.09;;;10.26;74.63
7760;BME280;3924;48.830;9.262;2023-03-19T04:40:51;98414.59;;;10.22;74.71
7760;BME280;3924;48.830;9.262;2023-03-19T04:43:18;98419.81;;;10.19;74.87
7760;BME280;3924;48.830;9.262;2023-03-19T04:45:44;98422.53;;;10.19;74.93
7760;BME280;3924;48.830;9.262;2023-03-19T04:48:11;98422.53;;;10.19;75.14
7760;BME280;3924;48.830;9.262;2023-03-19T04:50:38;98420.94;;;10.18;75.28
7760;BME280;3924;48.830;9.262;2023-03-19T04:53:05;98428.53;;;10.15;75.08
7760;BME280;3924;48.830;9.262;2023-03-19T04:55:33;98432.31;;;10.14;75.06
7760;BME280;3924;48.830;9.262;2023-03-19T04:57:59;98429.91;;;10.13;74.96
7760;BME280;3924;48.830;9.262;2023-03-19T05:00:26;98435.13;;;10.09;75.04
7760;BME280;3924;48.830;9.262;2023-03-19T05:02:53;98437.31;;;10.07;75.41
7760;BME280;3924;48.830;9.262;2023-03-19T05:05:19;98431.38;;;10.05;75.52
7760;BME280;3924;48.830;9.262;2023-03-19T05:07:46;98439.50;;;10.05;75.72
7760;BME280;3924;48.830;9.262;2023-03-19T05:10:12;98443.03;;;10.06;75.56
7760;BME280;3924;48.830;9.262;2023-03-19T05:12:39;98444.34;;;10.08;75.39
7760;BME280;3924;48.830;9.262;2023-03-19T05:15:06;98451.38;;;10.09;75.70
7760;BME280;3924;48.830;9.262;2023-03-19T05:17:33;98445.97;;;10.09;75.74
7760;BME280;3924;48.830;9.262;2023-03-19T05:20:01;98460.00;;;10.11;75.76
7760;BME280;3924;48.830;9.262;2023-03-19T05:22:27;98458.41;;;10.10;75.91
7760;BME280;3924;48.830;9.262;2023-03-19T05:24:54;98461.41;;;10.09;75.65
7760;BME280;3924;48.830;9.262;2023-03-19T05:27:20;98457.59;;;10.10;76.06
7760;BME280;3924;48.830;9.262;2023-03-19T05:29:47;98454.09;;;10.09;76.04
7760;BME280;3924;48.830;9.262;2023-03-19T05:32:13;98447.56;;;10.10;76.01
7760;BME280;3924;48.830;9.262;2023-03-19T05:34:41;98443.75;;;10.11;76.17
7760;BME280;3924;48.830;9.262;2023-03-19T05:37:08;98442.16;;;10.10;75.91
7760;BME280;3924;48.830;9.262;2023-03-19T05:39:34;98455.41;;;10.12;76.17
7760;BME280;3924;48.830;9.262;2023-03-19T05:42:01;98456.44;;;10.16;76.32
7760;BME280;3924;48.830;9.262;2023-03-19T05:44:28;98450.13;;;10.21;76.19
7760;BME280;3924;48.830;9.262;2023-03-19T05:46:54;98448.50;;;10.25;76.30
7760;BME280;3924;48.830;9.262;2023-03-19T05:49:21;98453.31;;;10.28;76.38
7760;BME280;3924;48.830;9.262;2023-03-19T05:51:47;98454.34;;;10.32;76.18
7760;BME280;3924;48.830;9.262;2023-03-19T05:54:13;98455.94;;;10.33;76.21
7760;BME280;3924;48.830;9.262;2023-03-19T05:56:40;98460.78;;;10.36;76.05
7760;BME280;3924;48.830;9.262;2023-03-19T05:59:06;98471.84;;;10.39;76.27
7760;BME280;3924;48.830;9.262;2023-03-19T06:01:33;98458.59;;;10.38;76.20
7760;BME280;3924;48.830;9.262;2023-03-19T06:04:00;98455.59;;;10.39;75.95
7760;BME280;3924;48.830;9.262;2023-03-19T06:06:29;98460.69;;;10.41;76.07
7760;BME280;3924;48.830;9.262;2023-03-19T06:08:56;98462.84;;;10.44;76.07
7760;BME280;3924;48.830;9.262;2023-03-19T06:11:22;98477.69;;;10.47;76.10
7760;BME280;3924;48.830;9.262;2023-03-19T06:13:49;98473.88;;;10.48;75.79
7760;BME280;3924;48.830;9.262;2023-03-19T06:16:16;98476.81;;;10.51;76.04
7760;BME280;3924;48.830;9.262;2023-03-19T06:18:42;98474.91;;;10.52;75.97
7760;BME280;3924;48.830;9.262;2023-03-19T06:21:09;98475.94;;;10.56;75.97
7760;BME280;3924;48.830;9.262;2023-03-19T06:23:35;98488.91;;;10.59;75.95
7760;BME280;3924;48.830;9.262;2023-03-19T06:26:02;98482.69;;;10.58;75.80
7760;BME280;3924;48.830;9.262;2023-03-19T06:28:29;98482.69;;;10.58;75.57
7760;BME280;3924;48.830;9.262;2023-03-19T06:30:56;98494.03;;;10.60;75.74
7760;BME280;3924;48.830;9.262;2023-03-19T06:33:23;98488.00;;;10.63;75.88
7760;BME280;3924;48.830;9.262;2023-03-19T06:35:52;98484.72;;;10.66;75.83
7760;BME280;3924;48.830;9.262;2023-03-19T06:38:19;98484.66;;;10.72;75.39
7760;BME280;3924;48.830;9.262;2023-03-19T06:40:46;98485.16;;;10.74;75.57
7760;BME280;3924;48.830;9.262;2023-03-19T06:43:13;98485.34;;;10.77;75.44
7760;BME280;3924;48.830;9.262;2023-03-19T06:45:39;98488.28;;;10.81;75.54
7760;BME280;3924;48.830;9.262;2023-03-19T06:48:06;98484.47;;;10.82;75.57
7760;BME280;3924;48.830;9.262;2023-03-19T06:50:33;98483.38;;;10.83;75.39
7760;BME280;3924;48.830;9.262;2023-03-19T06:52:59;98486.88;;;10.83;75.32
7760;BME280;3924;48.830;9.262;2023-03-19T06:55:27;98485.50;;;10.86;75.39
7760;BME280;3924;48.830;9.262;2023-03-19T06:57:56;98489.53;;;10.88;75.24
7760;BME280;3924;48.830;9.262;2023-03-19T07:00:22;98477.28;;;10.91;75.19
7760;BME280;3924;48.830;9.262;2023-03-19T07:02:49;98481.50;;;10.97;74.98
7760;BME280;3924;48.830;9.262;2023-03-19T07:05:16;98480.31;;;11.03;75.04
7760;BME280;3924;48.830;9.262;2023-03-19T07:07:42;98486.78;;;11.07;74.75
7760;BME280;3924;48.830;9.262;2023-03-19T07:10:09;98494.31;;;11.10;74.86
7760;BME280;3924;48.830;9.262;2023-03-19T07:12:36;98486.09;;;11.15;74.78
7760;BME280;3924;48.830;9.262;2023-03-19T07:15:03;98497.16;;;11.19;74.48
7760;BME280;3924;48.830;9.262;2023-03-19T07:17:30;98496.25;;;11.23;74.45
7760;BME280;3924;48.830;9.262;2023-03-19T07:19:56;98491.84;;;11.28;74.50
7760;BME280;3924;48.830;9.262;2023-03-19T07:22:23;98502.63;;;11.33;74.27
7760;BME280;3924;48.830;9.262;2023-03-19T07:24:49;98494.69;;;11.36;73.94
7760;BME280;3924;48.830;9.262;2023-03-19T07:27:16;98497.63;;;11.40;74.08
7760;BME280;3924;48.830;9.262;2023-03-19T07:29:43;98492.69;;;11.42;74.13
7760;BME280;3924;48.830;9.262;2023-03-19T07:32:10;98501.31;;;11.44;73.87
7760;BME280;3924;48.830;9.262;2023-03-19T07:34:36;98513.22;;;11.48;73.67
7760;BME280;3924;48.830;9.262;2023-03-19T07:37:03;98502.03;;;11.49;73.76
7760;BME280;3924;48.830;9.262;2023-03-19T07:39:30;98508.50;;;11.54;73.41
7760;BME280;3924;48.830;9.262;2023-03-19T07:41:56;98511.41;;;11.57;73.41
7760;BME280;3924;48.830;9.262;2023-03-19T07:44:23;98514.03;;;11.62;73.32
7760;BME280;3924;48.830;9.262;2023-03-19T07:46:49;98506.38;;;11.64;73.29
7760;BME280;3924;48.830;9.262;2023-03-19T07:49:16;98504.16;;;11.66;73.33
7760;BME280;3924;48.830;9.262;2023-03-19T07:51:42;98511.72;;;11.69;73.12
7760;BME280;3924;48.830;9.262;2023-03-19T07:54:09;98512.84;;;11.68;72.98
7760;BME280;3924;48.830;9.262;2023-03-19T07:56:36;98511.72;;;11.69;73.14
7760;BME280;3924;48.830;9.262;2023-03-19T07:59:02;98516.84;;;11.71;73.03
7760;BME280;3924;48.830;9.262;2023-03-19T08:01:29;98516.53;;;11.72;73.30
7760;BME280;3924;48.830;9.262;2023-03-19T08:03:55;98513.81;;;11.72;72.86
7760;BME280;3924;48.830;9.262;2023-03-19T08:06:22;98513.72;;;11.77;72.93
7760;BME280;3924;48.830;9.262;2023-03-19T08:08:49;98519.66;;;11.79;72.64
7760;BME280;3924;48.830;9.262;2023-03-19T08:11:15;98513.44;;;11.79;72.79
7760;BME280;3924;48.830;9.262;2023-03-19T08:13:42;98517.50;;;11.82;72.44
7760;BME280;3924;48.830;9.262;2023-03-19T08:16:08;98524.72;;;11.86;72.44
7760;BME280;3924;48.830;9.262;2023-03-19T08:18:35;98522.81;;;11.87;72.67
7760;BME280;3924;48.830;9.262;2023-03-19T08:21:02;98514.06;;;11.90;72.54
7760;BME280;3924;48.830;9.262;2023-03-19T08:23:29;98522.13;;;11.95;72.14
7760;BME280;3924;48.830;9.262;2023-03-19T08:25:55;98519.91;;;11.97;72.17
7760;BME280;3924;48.830;9.262;2023-03-19T08:28:22;98512.25;;;11.99;72.31
7760;BME280;3924;48.830;9.262;2023-03-19T08:30:49;98518.69;;;12.03;72.13
7760;BME280;3924;48.830;9.262;2023-03-19T08:33:16;98512.66;;;12.06;71.97
7760;BME280;3924;48.830;9.262;2023-03-19T08:35:42;98520.38;;;12.13;71.84
7760;BME280;3924;48.830;9.262;2023-03-19T08:38:09;98519.50;;;12.17;71.54
7760;BME280;3924;48.830;9.262;2023-03-19T08:40:36;98517.47;;;12.23;71.77
7760;BME280;3924;48.830;9.262;2023-03-19T08:43:03;98520.75;;;12.33;71.68
7760;BME280;3924;48.830;9.262;2023-03-19T08:45:29;98524.50;;;12.38;71.54
7760;BME280;3924;48.830;9.262;2023-03-19T08:47:56;98515.44;;;12.42;71.20
7760;BME280;3924;48.830;9.262;2023-03-19T08:50:23;98517.22;;;12.47;71.10
7760;BME280;3924;48.830;9.262;2023-03-19T08:52:50;98515.50;;;12.51;71.13
7760;BME280;3924;48.830;9.262;2023-03-19T08:55:16;98508.97;;;12.52;71.06
7760;BME280;3924;48.830;9.262;2023-03-19T08:57:43;98522.63;;;12.60;70.63
7760;BME280;3924;48.830;9.262;2023-03-19T09:00:10;98524.59;;;12.69;70.60
7760;BME280;3924;48.830;9.262;2023-03-19T09:02:37;98525.78;;;12.76;70.34
7760;BME280;3924;48.830;9.262;2023-03-19T09:05:05;98527.81;;;12.84;70.23
7760;BME280;3924;48.830;9.262;2023-03-19T09:07:32;98534.59;;;12.96;70.25
7760;BME280;3924;48.830;9.262;2023-03-19T09:09:58;98536.44;;;13.09;69.84
7760;BME280;3924;48.830;9.262;2023-03-19T09:12:25;98531.78;;;13.23;69.34
7760;BME280;3924;48.830;9.262;2023-03-19T09:14:52;98538.91;;;13.33;69.42
7760;BME280;3924;48.830;9.262;2023-03-19T09:17:18;98535.75;;;13.39;69.15
7760;BME280;3924;48.830;9.262;2023-03-19T09:19:45;98538.31;;;13.45;69.05
7760;BME280;3924;48.830;9.262;2023-03-19T09:22:11;98531.78;;;13.46;68.89
7760;BME280;3924;48.830;9.262;2023-03-19T09:24:38;98535.78;;;13.48;68.78
7760;BME280;3924;48.830;9.262;2023-03-19T09:27:06;98530.81;;;13.50;69.03
7760;BME280;3924;48.830;9.262;2023-03-19T09:29:32;98532.34;;;13.65;68.67
7760;BME280;3924;48.830;9.262;2023-03-19T09:31:59;98528.41;;;13.80;68.11
7760;BME280;3924;48.830;9.262;2023-03-19T09:34:26;98536.69;;;14.06;67.45
7760;BME280;3924;48.830;9.262;2023-03-19T09:36:52;98532.22;;;14.18;67.22
7760;BME280;3924;48.830;9.262;2023-03-19T09:39:19;98533.69;;;14.16;67.28
7760;BME280;3924;48.830;9.262;2023-03-19T09:44:30;98524.19;;;14.13;67.01
7760;BME280;3924;48.830;9.262;2023-03-19T09:47:11;98523.72;;;14.20;66.79
7760;BME280;3924;48.830;9.262;2023-03-19T09:49:46;98525.53;;;14.33;66.42
7760;BME280;3924;48.830;9.262;2023-03-19T09:55:15;98512.44;;;14.96;65.13
7760;BME280;3924;48.830;9.262;2023-03-19T09:57:46;98518.56;;;15.10;64.39
7760;BME280;3924;48.830;9.262;2023-03-19T10:02:43;98520.84;;;15.64;63.00
7760;BME280;3924;48.830;9.262;2023-03-19T10:11:21;98514.53;;;16.39;61.19
7760;BME280;3924;48.830;9.262;2023-03-19T10:16:43;98504.00;;;16.50;60.64
7760;BME280;3924;48.830;9.262;2023-03-19T10:19:16;98504.09;;;16.41;60.57
7760;BME280;3924;48.830;9.262;2023-03-19T10:21:48;98501.41;;;16.54;60.23
7760;BME280;3924;48.830;9.262;2023-03-19T10:24:32;98506.03;;;16.62;59.82
7760;BME280;3924;48.830;9.262;2023-03-19T10:27:12;98507.13;;;16.70;59.36
7760;BME280;3924;48.830;9.262;2023-03-19T10:29:39;98499.44;;;16.84;59.10
7760;BME280;3924;48.830;9.262;2023-03-19T10:32:23;98500.16;;;16.93;58.92
7760;BME280;3924;48.830;9.262;2023-03-19T10:34:56;98493.78;;;16.89;58.81
7760;BME280;3924;48.830;9.262;2023-03-19T10:37:26;98487.88;;;16.99;58.47
7760;BME280;3924;48.830;9.262;2023-03-19T10:39:58;98489.13;;;17.02;58.13
7760;BME280;3924;48.830;9.262;2023-03-19T10:45:20;98481.03;;;17.05;57.99
7760;BME280;3924;48.830;9.262;2023-03-19T10:47:50;98477.63;;;17.08;57.68
7760;BME280;3924;48.830;9.262;2023-03-19T10:50:20;98475.81;;;17.12;57.75
7760;BME280;3924;48.830;9.262;2023-03-19T10:52:50;98484.06;;;17.25;57.22
7760;BME280;3924;48.830;9.262;2023-03-19T10:55:23;98471.03;;;17.09;57.51
7760;BME280;3924;48.830;9.262;2023-03-19T10:57:55;98465.09;;;17.19;56.84
7760;BME280;3924;48.830;9.262;2023-03-19T11:00:28;98467.19;;;17.35;56.82
7760;BME280;3924;48.830;9.262;2023-03-19T11:02:58;98459.38;;;17.58;56.40
7760;BME280;3924;48.830;9.262;2023-03-19T11:05:28;98451.53;;;17.81;55.61
7760;BME280;3924;48.830;9.262;2023-03-19T11:08:03;98456.63;;;17.70;55.66
7760;BME280;3924;48.830;9.262;2023-03-19T11:10:32;98461.53;;;17.52;56.03
7760;BME280;3924;48.830;9.262;2023-03-19T11:13:05;98460.34;;;17.41;55.89
7760;BME280;3924;48.830;9.262;2023-03-19T11:15:34;98467.19;;;17.35;55.97
7760;BME280;3924;48.830;9.262;2023-03-19T11:18:07;98460.88;;;17.22;56.06
7760;BME280;3924;48.830;9.262;2023-03-19T11:20:40;98454.53;;;17.30;55.94
7760;BME280;3924;48.830;9.262;2023-03-19T11:23:18;98447.41;;;17.17;55.99
7760;BME280;3924;48.830;9.262;2023-03-19T11:25:53;98444.69;;;17.17;55.95
7760;BME280;3924;48.830;9.262;2023-03-19T11:28:21;98443.88;;;17.29;55.58
7760;BME280;3924;48.830;9.262;2023-03-19T11:31:01;98450.50;;;17.28;55.27
7760;BME280;3924;48.830;9.262;2023-03-19T11:34:04;98441.63;;;17.31;55.17
7760;BME280;3924;48.830;9.262;2023-03-19T11:45:17;98434.44;;;17.63;53.94
7760;BME280;3924;48.830;9.262;2023-03-19T11:50:49;98427.94;;;18.16;52.23
7760;BME280;3924;48.830;9.262;2023-03-19T11:53:27;98428.72;;;18.29;52.02
7760;BME280;3924;48.830;9.262;2023-03-19T12:01:58;98421.13;;;17.86;51.93
7760;BME280;3924;48.830;9.262;2023-03-19T12:13:15;98405.63;;;17.20;52.89
7760;BME280;3924;48.830;9.262;2023-03-19T12:16:05;98415.16;;;17.47;52.30
7760;BME280;3924;48.830;9.262;2023-03-19T12:29:47;98407.38;;;17.98;50.38
7760;BME280;3924;48.830;9.262;2023-03-19T12:34:55;98398.25;;;17.57;51.20
7760;BME280;3924;48.830;9.262;2023-03-19T12:37:34;98401.00;;;17.57;51.19
7760;BME280;3924;48.830;9.262;2023-03-19T12:43:33;98405.34;;;17.95;49.98
7760;BME280;3924;48.830;9.262;2023-03-19T12:46:12;98405.78;;;17.97;50.15
7760;BME280;3924;48.830;9.262;2023-03-19T12:48:43;98394.16;;;17.75;50.29
7760;BME280;3924;48.830;9.262;2023-03-19T12:51:17;98398.56;;;17.56;50.50
7760;BME280;3924;48.830;9.262;2023-03-19T12:56:51;98401.66;;;17.42;50.55
7760;BME280;3924;48.830;9.262;2023-03-19T12:59:28;98398.22;;;17.33;50.63
7760;BME280;3924;48.830;9.262;2023-03-19T13:02:03;98406.97;;;17.14;50.70
7760;BME280;3924;48.830;9.262;2023-03-19T13:04:39;98412.28;;;16.65;51.50
7760;BME280;3924;48.830;9.262;2023-03-19T13:07:17;98411.91;;;16.33;52.29
7760;BME280;3924;48.830;9.262;2023-03-19T13:09:55;98411.59;;;16.05;52.83
7760;BME280;3924;48.830;9.262;2023-03-19T13:12:26;98415.78;;;15.82;53.33
7760;BME280;3924;48.830;9.262;2023-03-19T13:15:24;98406.25;;;15.58;53.75
7760;BME280;3924;48.830;9.262;2023-03-19T13:18:18;98424.47;;;15.37;54.38
7760;BME280;3924;48.830;9.262;2023-03-19T13:23:37;98426.22;;;15.03;55.08
7760;BME280;3924;48.830;9.262;2023-03-19T13:26:08;98441.16;;;14.80;56.01
7760;BME280;3924;48.830;9.262;2023-03-19T13:28:37;98441.97;;;14.55;56.49
7760;BME280;3924;48.830;9.262;2023-03-19T13:31:23;98453.00;;;14.32;57.30
7760;BME280;3924;48.830;9.262;2023-03-19T13:34:03;98465.97;;;14.01;58.26
7760;BME280;3924;48.830;9.262;2023-03-19T13:36:35;98473.06;;;13.71;59.14
7760;BME280;3924;48.830;9.262;2023-03-19T13:39:33;98448.38;;;13.27;60.56
7760;BME280;3924;48.830;9.262;2023-03-19T13:44:50;98442.56;;;13.20;61.32
7760;BME280;3924;48.830;9.262;2023-03-19T13:54:53;98427.94;;;13.95;61.72
7760;BME280;3924;48.830;9.262;2023-03-19T13:57:34;98439.50;;;14.01;61.99
7760;BME280;3924;48.830;9.262;2023-03-19T14:00:48;98442.38;;;14.05;62.02
7760;BME280;3924;48.830;9.262;2023-03-19T14:03:29;98437.25;;;14.03;62.40
7760;BME280;3924;48.830;9.262;2023-03-19T14:05:57;98435.47;;;13.99;62.95
7760;BME280;3924;48.830;9.262;2023-03-19T14:08:48;98435.31;;;13.95;63.35
7760;BME280;3924;48.830;9.262;2023-03-19T14:11:22;98428.09;;;13.90;63.36
7760;BME280;3924;48.830;9.262;2023-03-19T14:13:51;98424.44;;;13.95;63.41
7760;BME280;3924;48.830;9.262;2023-03-19T14:16:29;98427.81;;;14.01;63.78
7760;BME280;3924;48.830;9.262;2023-03-19T14:19:00;98435.19;;;14.09;63.95
7760;BME280;3924;48.830;9.262;2023-03-19T14:21:34;98431.34;;;14.10;63.99
7760;BME280;3924;48.830;9.262;2023-03-19T14:24:27;98438.38;;;14.11;64.36
7760;BME280;3924;48.830;9.262;2023-03-19T14:27:17;98440.78;;;14.12;64.63
7760;BME280;3924;48.830;9.262;2023-03-19T14:29:48;98435.84;;;14.23;64.68
7760;BME280;3924;48.830;9.262;2023-03-19T14:32:20;98424.00;;;14.54;63.90
7760;BME280;3924;48.830;9.262;2023-03-19T14:34:48;98415.34;;;14.77;63.58
7760;BME280;3924;48.830;9.262;2023-03-19T14:39:43;98411.22;;;15.18;63.53
7760;BME280;3924;48.830;9.262;2023-03-19T14:42:31;98409.16;;;15.07;63.86
7760;BME280;3924;48.830;9.262;2023-03-19T14:45:25;98414.03;;;14.84;64.38
7760;BME280;3924;48.830;9.262;2023-03-19T14:48:05;98414.22;;;14.70;64.83
7760;BME280;3924;48.830;9.262;2023-03-19T14:50:57;98428.19;;;14.60;65.37
7760;BME280;3924;48.830;9.262;2023-03-19T14:53:40;98425.75;;;14.41;65.66
7760;BME280;3924;48.830;9.262;2023-03-19T14:56:14;98432.78;;;14.33;65.76
7760;BME280;3924;48.830;9.262;2023-03-19T14:58:49;98426.38;;;14.20;66.23